Flint, MI (48557)

5:43 PM EDT on July 26, 2016 (GMT -0400)
Dave Grand Blanc | | Change Station

Elev 797 ft 42.95 °N, 83.67 °W | Updated 5 minutes ago

Clear
Clear
91.8 °F
Feels Like 93 °F
N
1.1
Wind Variable Wind from WNW
Gusts 3.4 mph

Today
High -- | Low -- °F
--% Chance of Precip.
Yesterday
High -- | Low -- °F
Precip. -- in
Pressure 29.99 in
Visibility 10.0 miles
Clouds Clear
Heat Index 93 °F
Dew Point 63 °F
Humidity 39%
Rainfall 0.00 in
Snow Depth Not available.
6:19 AM 9:01 PM
Waning Gibbous, 51% visible
METAR KFNT 262053Z 28009KT 10SM CLR 32/14 A3000 RMK AO2 SLP154 T03220144 58013
Pressure 29.99 in
Visibility 10.0 miles
Clouds Clear
Heat Index 93 °F
Dew Point 63 °F
Humidity 39%
Rainfall 0.00 in
Snow Depth Not available.
6:19 AM 9:01 PM
Waning Gibbous, 51% visible
METAR KFNT 262053Z 28009KT 10SM CLR 32/14 A3000 RMK AO2 SLP154 T03220144 58013

10-Day Weather Forecast

Almanac

Astronomy

Jul. 26, 2016 Rise Set
Actual Time
Civil Twilight
Nautical Twilight
Astronomical Twilight
Moon
Length of Visible Light
Length of Day
Tomorrow will be .
, % of the Moon is Illuminated

Today's Extremes

State Highs State Lows

Community

WunderPhotos

Upload Photos

1,927,702 photos uploaded!

WunderBlog® & News

Nearby

Air Quality

  Air Quality AQ Index Pollutant
Not available.

Snow Depth

Station Depth Elevation

Earthquake Activity

City Distance Mag. Time & Date
Minimum magnitude displayed is 2.5.

Coastal Water Temperatures

Place Temperature

Stations

Nearby Weather Stations

Station Location Temp. Windchill Dew Point Humidity Wind Precip. Elev Updated Type
                   

Watches & Warnings

There are currently no watches in effect.